sensor_id;sensor_type;location;lat;lon;timestamp;temperature;humidity
32147;DHT22;32190;49.112;8.598;2022-12-08T00:05:48;7.40;62.10
32147;DHT22;32190;49.112;8.598;2022-12-08T00:11:59;7.30;62.20
32147;DHT22;32190;49.112;8.598;2022-12-08T00:17:50;7.30;62.20
32147;DHT22;32190;49.112;8.598;2022-12-08T00:23:41;7.30;62.20
32147;DHT22;32190;49.112;8.598;2022-12-08T00:29:31;7.20;62.20
32147;DHT22;32190;49.112;8.598;2022-12-08T00:35:22;7.20;62.20
32147;DHT22;32190;49.112;8.598;2022-12-08T00:41:15;7.20;62.30
32147;DHT22;32190;49.112;8.598;2022-12-08T00:47:06;7.20;62.30
32147;DHT22;32190;49.112;8.598;2022-12-08T00:52:57;7.20;62.30
32147;DHT22;32190;49.112;8.598;2022-12-08T00:58:47;7.20;62.30
32147;DHT22;32190;49.112;8.598;2022-12-08T01:04:38;7.20;62.30
32147;DHT22;32190;49.112;8.598;2022-12-08T01:10:28;7.20;62.30
32147;DHT22;32190;49.112;8.598;2022-12-08T01:16:24;7.20;62.30
32147;DHT22;32190;49.112;8.598;2022-12-08T01:22:15;7.20;62.30
32147;DHT22;32190;49.112;8.598;2022-12-08T01:28:05;7.20;62.30
32147;DHT22;32190;49.112;8.598;2022-12-08T01:33:56;7.20;62.20
32147;DHT22;32190;49.112;8.598;2022-12-08T01:39:48;7.20;62.20
32147;DHT22;32190;49.112;8.598;2022-12-08T01:45:38;7.20;62.10
32147;DHT22;32190;49.112;8.598;2022-12-08T01:51:32;7.10;62.00
32147;DHT22;32190;49.112;8.598;2022-12-08T01:57:30;7.10;62.00
32147;DHT22;32190;49.112;8.598;2022-12-08T02:03:30;7.10;61.80
32147;DHT22;32190;49.112;8.598;2022-12-08T02:09:24;7.00;61.90
32147;DHT22;32190;49.112;8.598;2022-12-08T02:15:14;7.00;62.00
32147;DHT22;32190;49.112;8.598;2022-12-08T02:45:58;6.90;62.10
32147;DHT22;32190;49.112;8.598;2022-12-08T02:51:49;6.90;62.10
32147;DHT22;32190;49.112;8.598;2022-12-08T02:58:14;6.90;62.10
32147;DHT22;32190;49.112;8.598;2022-12-08T03:10:20;6.80;62.00
32147;DHT22;32190;49.112;8.598;2022-12-08T03:16:16;6.80;62.10
32147;DHT22;32190;49.112;8.598;2022-12-08T03:22:08;6.80;62.20
32147;DHT22;32190;49.112;8.598;2022-12-08T03:28:00;6.70;62.20
32147;DHT22;32190;49.112;8.598;2022-12-08T03:33:51;6.70;62.20
32147;DHT22;32190;49.112;8.598;2022-12-08T03:39:44;6.70;62.30
32147;DHT22;32190;49.112;8.598;2022-12-08T03:45:35;6.70;62.40
32147;DHT22;32190;49.112;8.598;2022-12-08T03:51:25;6.70;62.40
32147;DHT22;32190;49.112;8.598;2022-12-08T03:57:16;6.70;62.40
32147;DHT22;32190;49.112;8.598;2022-12-08T04:03:07;6.70;62.40
32147;DHT22;32190;49.112;8.598;2022-12-08T04:08:58;6.70;62.40
32147;DHT22;32190;49.112;8.598;2022-12-08T04:14:48;6.80;62.40
32147;DHT22;32190;49.112;8.598;2022-12-08T04:20:40;6.80;62.40
32147;DHT22;32190;49.112;8.598;2022-12-08T04:26:31;6.80;62.40
32147;DHT22;32190;49.112;8.598;2022-12-08T04:32:22;6.80;62.40
32147;DHT22;32190;49.112;8.598;2022-12-08T04:38:12;6.70;62.30
32147;DHT22;32190;49.112;8.598;2022-12-08T04:44:03;6.70;62.30
32147;DHT22;32190;49.112;8.598;2022-12-08T04:49:54;6.70;62.30
32147;DHT22;32190;49.112;8.598;2022-12-08T04:55:45;6.70;62.30
32147;DHT22;32190;49.112;8.598;2022-12-08T05:01:37;6.70;62.40
32147;DHT22;32190;49.112;8.598;2022-12-08T05:07:28;6.70;62.40
32147;DHT22;32190;49.112;8.598;2022-12-08T05:13:18;6.80;62.40
32147;DHT22;32190;49.112;8.598;2022-12-08T05:19:09;6.70;62.40
32147;DHT22;32190;49.112;8.598;2022-12-08T05:25:00;6.80;62.30
32147;DHT22;32190;49.112;8.598;2022-12-08T05:30:51;6.80;62.40
32147;DHT22;32190;49.112;8.598;2022-12-08T05:36:41;6.80;62.30
32147;DHT22;32190;49.112;8.598;2022-12-08T05:42:32;6.80;62.40
32147;DHT22;32190;49.112;8.598;2022-12-08T05:48:23;6.80;62.40
32147;DHT22;32190;49.112;8.598;2022-12-08T05:54:13;6.80;62.40
32147;DHT22;32190;49.112;8.598;2022-12-08T06:00:04;6.80;62.40
32147;DHT22;32190;49.112;8.598;2022-12-08T06:05:55;6.80;62.40
32147;DHT22;32190;49.112;8.598;2022-12-08T06:11:46;6.80;62.40
32147;DHT22;32190;49.112;8.598;2022-12-08T06:17:36;6.80;62.40
32147;DHT22;32190;49.112;8.598;2022-12-08T06:23:27;6.80;62.30
32147;DHT22;32190;49.112;8.598;2022-12-08T06:29:17;6.80;62.30
32147;DHT22;32190;49.112;8.598;2022-12-08T06:35:08;6.80;62.40
32147;DHT22;32190;49.112;8.598;2022-12-08T06:40:59;6.80;62.40
32147;DHT22;32190;49.112;8.598;2022-12-08T06:46:50;6.80;62.30
32147;DHT22;32190;49.112;8.598;2022-12-08T06:52:40;6.80;62.40
32147;DHT22;32190;49.112;8.598;2022-12-08T06:58:32;6.80;62.40
32147;DHT22;32190;49.112;8.598;2022-12-08T07:04:23;6.80;62.40
32147;DHT22;32190;49.112;8.598;2022-12-08T07:10:13;6.90;62.30
32147;DHT22;32190;49.112;8.598;2022-12-08T07:16:09;6.80;62.30
32147;DHT22;32190;49.112;8.598;2022-12-08T07:21:59;6.80;62.40
32147;DHT22;32190;49.112;8.598;2022-12-08T07:27:50;6.80;62.30
32147;DHT22;32190;49.112;8.598;2022-12-08T07:33:42;6.80;62.30
32147;DHT22;32190;49.112;8.598;2022-12-08T07:39:32;6.80;62.30
32147;DHT22;32190;49.112;8.598;2022-12-08T07:45:23;6.80;62.20
32147;DHT22;32190;49.112;8.598;2022-12-08T07:51:15;6.80;62.30
32147;DHT22;32190;49.112;8.598;2022-12-08T07:57:06;6.80;62.30
32147;DHT22;32190;49.112;8.598;2022-12-08T08:02:58;6.80;62.30
32147;DHT22;32190;49.112;8.598;2022-12-08T08:08:49;6.80;62.30
32147;DHT22;32190;49.112;8.598;2022-12-08T08:14:39;6.90;62.40
32147;DHT22;32190;49.112;8.598;2022-12-08T08:20:30;6.90;62.50
32147;DHT22;32190;49.112;8.598;2022-12-08T08:26:21;6.90;62.50
32147;DHT22;32190;49.112;8.598;2022-12-08T08:32:11;6.90;62.50
32147;DHT22;32190;49.112;8.598;2022-12-08T08:38:02;6.90;62.50
32147;DHT22;32190;49.112;8.598;2022-12-08T08:43:53;6.90;62.50
32147;DHT22;32190;49.112;8.598;2022-12-08T08:49:45;7.00;62.60
32147;DHT22;32190;49.112;8.598;2022-12-08T08:55:38;7.00;62.50
32147;DHT22;32190;49.112;8.598;2022-12-08T09:01:29;7.00;62.50
32147;DHT22;32190;49.112;8.598;2022-12-08T09:07:19;7.10;62.50
32147;DHT22;32190;49.112;8.598;2022-12-08T09:13:10;7.10;62.50
32147;DHT22;32190;49.112;8.598;2022-12-08T09:19:01;7.10;62.40
32147;DHT22;32190;49.112;8.598;2022-12-08T09:24:51;7.10;62.40
32147;DHT22;32190;49.112;8.598;2022-12-08T09:30:42;7.10;62.40
32147;DHT22;32190;49.112;8.598;2022-12-08T09:36:33;7.10;62.40
32147;DHT22;32190;49.112;8.598;2022-12-08T09:48:38;7.10;62.40
32147;DHT22;32190;49.112;8.598;2022-12-08T09:54:34;7.20;62.50
32147;DHT22;32190;49.112;8.598;2022-12-08T10:00:25;7.10;62.30
32147;DHT22;32190;49.112;8.598;2022-12-08T10:06:32;7.10;62.40
32147;DHT22;32190;49.112;8.598;2022-12-08T10:12:47;7.20;62.50
32147;DHT22;32190;49.112;8.598;2022-12-08T10:18:41;7.20;62.50
32147;DHT22;32190;49.112;8.598;2022-12-08T10:24:43;7.20;62.50
32147;DHT22;32190;49.112;8.598;2022-12-08T10:30:40;7.20;62.50
32147;DHT22;32190;49.112;8.598;2022-12-08T10:36:57;7.30;62.50
32147;DHT22;32190;49.112;8.598;2022-12-08T10:42:51;7.30;62.50
32147;DHT22;32190;49.112;8.598;2022-12-08T10:48:47;7.30;62.50
32147;DHT22;32190;49.112;8.598;2022-12-08T10:54:41;7.30;62.60
32147;DHT22;32190;49.112;8.598;2022-12-08T11:00:32;7.40;62.60
32147;DHT22;32190;49.112;8.598;2022-12-08T11:06:30;7.40;63.10
32147;DHT22;32190;49.112;8.598;2022-12-08T11:12:21;7.50;62.40
32147;DHT22;32190;49.112;8.598;2022-12-08T11:18:26;7.50;62.50
32147;DHT22;32190;49.112;8.598;2022-12-08T11:24:19;7.60;62.40
32147;DHT22;32190;49.112;8.598;2022-12-08T11:30:14;7.60;62.40
32147;DHT22;32190;49.112;8.598;2022-12-08T11:36:10;7.70;62.20
32147;DHT22;32190;49.112;8.598;2022-12-08T11:42:03;7.70;62.20
32147;DHT22;32190;49.112;8.598;2022-12-08T12:00:19;7.80;62.20
32147;DHT22;32190;49.112;8.598;2022-12-08T12:18:42;7.90;62.10
32147;DHT22;32190;49.112;8.598;2022-12-08T12:24:36;7.90;62.10
32147;DHT22;32190;49.112;8.598;2022-12-08T12:30:53;8.00;62.20
32147;DHT22;32190;49.112;8.598;2022-12-08T12:37:08;8.00;62.00
32147;DHT22;32190;49.112;8.598;2022-12-08T12:48:51;8.10;61.80
32147;DHT22;32190;49.112;8.598;2022-12-08T13:00:39;8.10;61.50
32147;DHT22;32190;49.112;8.598;2022-12-08T13:06:46;8.10;61.50
32147;DHT22;32190;49.112;8.598;2022-12-08T13:12:37;8.10;61.40
32147;DHT22;32190;49.112;8.598;2022-12-08T13:18:30;8.20;61.40
32147;DHT22;32190;49.112;8.598;2022-12-08T13:30:40;8.20;61.40
32147;DHT22;32190;49.112;8.598;2022-12-08T13:36:35;8.20;61.10
32147;DHT22;32190;49.112;8.598;2022-12-08T13:42:41;8.30;61.40
32147;DHT22;32190;49.112;8.598;2022-12-08T13:48:49;8.30;61.20
32147;DHT22;32190;49.112;8.598;2022-12-08T13:54:42;8.30;61.20
32147;DHT22;32190;49.112;8.598;2022-12-08T14:00:32;8.40;61.00
32147;DHT22;32190;49.112;8.598;2022-12-08T14:06:35;8.30;60.90
32147;DHT22;32190;49.112;8.598;2022-12-08T14:12:27;8.30;60.70
32147;DHT22;32190;49.112;8.598;2022-12-08T14:18:23;8.30;61.00
32147;DHT22;32190;49.112;8.598;2022-12-08T14:24:14;8.30;61.00
32147;DHT22;32190;49.112;8.598;2022-12-08T14:36:02;8.20;60.90
32147;DHT22;32190;49.112;8.598;2022-12-08T14:41:58;8.30;60.90
32147;DHT22;32190;49.112;8.598;2022-12-08T14:47:49;8.20;60.70
32147;DHT22;32190;49.112;8.598;2022-12-08T14:53:59;8.20;60.90
32147;DHT22;32190;49.112;8.598;2022-12-08T14:59:51;8.20;60.90
32147;DHT22;32190;49.112;8.598;2022-12-08T15:05:42;8.20;61.00
32147;DHT22;32190;49.112;8.598;2022-12-08T15:11:36;8.20;60.90
32147;DHT22;32190;49.112;8.598;2022-12-08T15:17:41;8.20;60.90
32147;DHT22;32190;49.112;8.598;2022-12-08T15:23:36;8.20;60.90
32147;DHT22;32190;49.112;8.598;2022-12-08T15:29:31;8.20;61.00
32147;DHT22;32190;49.112;8.598;2022-12-08T15:35:21;8.20;61.00
32147;DHT22;32190;49.112;8.598;2022-12-08T15:41:12;8.10;61.00
32147;DHT22;32190;49.112;8.598;2022-12-08T15:47:03;8.20;61.10
32147;DHT22;32190;49.112;8.598;2022-12-08T15:52:54;8.10;61.00
32147;DHT22;32190;49.112;8.598;2022-12-08T15:58:45;8.10;61.00
32147;DHT22;32190;49.112;8.598;2022-12-08T16:04:35;8.20;61.00
32147;DHT22;32190;49.112;8.598;2022-12-08T16:10:26;8.10;60.90
32147;DHT22;32190;49.112;8.598;2022-12-08T16:16:18;8.10;61.00
32147;DHT22;32190;49.112;8.598;2022-12-08T16:22:18;8.10;61.60
32147;DHT22;32190;49.112;8.598;2022-12-08T16:28:09;8.10;60.90
32147;DHT22;32190;49.112;8.598;2022-12-08T16:34:00;8.10;60.80
32147;DHT22;32190;49.112;8.598;2022-12-08T16:39:52;8.10;60.70
32147;DHT22;32190;49.112;8.598;2022-12-08T16:45:43;8.00;60.70
32147;DHT22;32190;49.112;8.598;2022-12-08T16:51:34;8.00;60.50
32147;DHT22;32190;49.112;8.598;2022-12-08T16:57:24;8.00;60.50
32147;DHT22;32190;49.112;8.598;2022-12-08T17:03:15;7.90;60.50
32147;DHT22;32190;49.112;8.598;2022-12-08T17:09:06;7.90;60.60
32147;DHT22;32190;49.112;8.598;2022-12-08T17:14:57;7.90;60.40
32147;DHT22;32190;49.112;8.598;2022-12-08T17:20:47;7.80;60.30
32147;DHT22;32190;49.112;8.598;2022-12-08T17:26:38;7.80;60.50
32147;DHT22;32190;49.112;8.598;2022-12-08T17:32:31;7.80;60.60
32147;DHT22;32190;49.112;8.598;2022-12-08T17:38:22;7.80;60.60
32147;DHT22;32190;49.112;8.598;2022-12-08T17:44:17;7.80;60.70
32147;DHT22;32190;49.112;8.598;2022-12-08T17:50:11;7.80;60.70
32147;DHT22;32190;49.112;8.598;2022-12-08T17:56:03;7.80;60.80
32147;DHT22;32190;49.112;8.598;2022-12-08T18:01:55;7.80;60.80
32147;DHT22;32190;49.112;8.598;2022-12-08T18:07:48;7.80;60.70
32147;DHT22;32190;49.112;8.598;2022-12-08T18:13:41;7.80;60.80
32147;DHT22;32190;49.112;8.598;2022-12-08T18:19:32;7.80;60.90
32147;DHT22;32190;49.112;8.598;2022-12-08T18:25:23;7.90;61.00
32147;DHT22;32190;49.112;8.598;2022-12-08T18:31:17;7.90;61.00
32147;DHT22;32190;49.112;8.598;2022-12-08T18:37:08;7.80;60.90
32147;DHT22;32190;49.112;8.598;2022-12-08T18:42:59;7.90;61.00
32147;DHT22;32190;49.112;8.598;2022-12-08T18:48:51;7.80;60.90
32147;DHT22;32190;49.112;8.598;2022-12-08T18:54:45;7.80;61.00
32147;DHT22;32190;49.112;8.598;2022-12-08T19:00:36;7.80;61.00
32147;DHT22;32190;49.112;8.598;2022-12-08T19:06:26;7.80;61.00
32147;DHT22;32190;49.112;8.598;2022-12-08T19:12:19;7.80;61.00
32147;DHT22;32190;49.112;8.598;2022-12-08T19:18:09;7.80;61.00
32147;DHT22;32190;49.112;8.598;2022-12-08T19:24:00;7.80;61.10
32147;DHT22;32190;49.112;8.598;2022-12-08T19:29:51;7.80;61.10
32147;DHT22;32190;49.112;8.598;2022-12-08T19:35:42;7.70;61.00
32147;DHT22;32190;49.112;8.598;2022-12-08T19:41:35;7.70;61.00
32147;DHT22;32190;49.112;8.598;2022-12-08T19:47:47;7.70;61.00
32147;DHT22;32190;49.112;8.598;2022-12-08T19:53:40;7.70;61.10
32147;DHT22;32190;49.112;8.598;2022-12-08T19:59:34;7.70;61.10
32147;DHT22;32190;49.112;8.598;2022-12-08T20:05:29;7.70;61.10
32147;DHT22;32190;49.112;8.598;2022-12-08T20:11:23;7.70;61.00
32147;DHT22;32190;49.112;8.598;2022-12-08T20:17:14;7.70;61.10
32147;DHT22;32190;49.112;8.598;2022-12-08T20:23:04;7.70;61.10
32147;DHT22;32190;49.112;8.598;2022-12-08T20:28:55;7.70;61.10
32147;DHT22;32190;49.112;8.598;2022-12-08T20:34:46;7.60;61.00
32147;DHT22;32190;49.112;8.598;2022-12-08T20:40:43;7.70;61.10
32147;DHT22;32190;49.112;8.598;2022-12-08T20:46:38;7.70;61.20
32147;DHT22;32190;49.112;8.598;2022-12-08T20:52:28;7.60;61.10
32147;DHT22;32190;49.112;8.598;2022-12-08T20:58:19;7.70;61.20
32147;DHT22;32190;49.112;8.598;2022-12-08T21:04:12;7.70;61.20
32147;DHT22;32190;49.112;8.598;2022-12-08T21:10:03;7.70;61.20
32147;DHT22;32190;49.112;8.598;2022-12-08T21:15:54;7.60;61.10
32147;DHT22;32190;49.112;8.598;2022-12-08T21:21:45;7.70;61.10
32147;DHT22;32190;49.112;8.598;2022-12-08T21:27:38;7.60;61.10
32147;DHT22;32190;49.112;8.598;2022-12-08T21:33:29;7.60;61.00
32147;DHT22;32190;49.112;8.598;2022-12-08T21:39:19;7.60;61.00
32147;DHT22;32190;49.112;8.598;2022-12-08T21:45:15;7.60;61.10
32147;DHT22;32190;49.112;8.598;2022-12-08T21:51:06;7.60;61.10
32147;DHT22;32190;49.112;8.598;2022-12-08T21:56:57;7.60;61.20
32147;DHT22;32190;49.112;8.598;2022-12-08T22:02:47;7.60;61.20
32147;DHT22;32190;49.112;8.598;2022-12-08T22:08:39;7.50;61.10
32147;DHT22;32190;49.112;8.598;2022-12-08T22:14:30;7.50;61.10
32147;DHT22;32190;49.112;8.598;2022-12-08T22:20:21;7.50;61.10
32147;DHT22;32190;49.112;8.598;2022-12-08T22:26:15;7.50;61.10
32147;DHT22;32190;49.112;8.598;2022-12-08T22:32:08;7.50;61.00
32147;DHT22;32190;49.112;8.598;2022-12-08T22:38:01;7.50;61.10
32147;DHT22;32190;49.112;8.598;2022-12-08T22:43:52;7.40;61.10
32147;DHT22;32190;49.112;8.598;2022-12-08T22:49:43;7.40;61.00
32147;DHT22;32190;49.112;8.598;2022-12-08T22:55:34;7.40;60.90
32147;DHT22;32190;49.112;8.598;2022-12-08T23:01:33;7.40;61.00
32147;DHT22;32190;49.112;8.598;2022-12-08T23:07:24;7.40;61.00
32147;DHT22;32190;49.112;8.598;2022-12-08T23:13:18;7.30;60.90
32147;DHT22;32190;49.112;8.598;2022-12-08T23:19:09;7.30;60.90
32147;DHT22;32190;49.112;8.598;2022-12-08T23:24:59;7.30;60.90
32147;DHT22;32190;49.112;8.598;2022-12-08T23:30:50;7.30;60.90
32147;DHT22;32190;49.112;8.598;2022-12-08T23:36:41;7.20;60.90
32147;DHT22;32190;49.112;8.598;2022-12-08T23:42:31;7.20;60.70
32147;DHT22;32190;49.112;8.598;2022-12-08T23:48:22;7.20;60.80
32147;DHT22;32190;49.112;8.598;2022-12-08T23:54:12;7.10;60.80
